Time;durP1;ratioP1;P1;durP2;ratioP2;P2;SDS_P1;SDS_P2;PMS_P1;PMS_P2;Temp;Humidity;BMP_temperature;BMP_pressure;BME280_temperature;BME280_humidity;BME280_pressure;Samples;Min_cycle;Max_cycle;Signal;HPM_P1;HPM_P2
2021/08/14 00:00:39;;;;;;;15.15;4.50;;;;;;;;;;4997592;28;20042;-54
2021/08/14 00:03:05;;;;;;;12.43;4.03;;;;;;;;;;4995682;28;20045;-56
2021/08/14 00:05:32;;;;;;;15.88;3.67;;;;;;;;;;4999406;28;20056;-55
2021/08/14 00:07:58;;;;;;;10.75;2.83;;;;;;;;;;4978278;28;20066;-53
2021/08/14 00:10:24;;;;;;;10.73;2.60;;;;;;;;;;4981476;28;20064;-52
2021/08/14 00:12:51;;;;;;;20.30;3.30;;;;;;;;;;4979084;28;20053;-53
2021/08/14 00:15:18;;;;;;;11.45;2.58;;;;;;;;;;4981039;28;20042;-53
2021/08/14 00:17:46;;;;;;;15.65;3.20;;;;;;;;;;4977365;28;20038;-50
2021/08/14 00:20:12;;;;;;;10.50;3.03;;;;;;;;;;4983061;28;20034;-52
2021/08/14 00:22:39;;;;;;;13.13;2.80;;;;;;;;;;4996930;28;20143;-49
2021/08/14 00:25:05;;;;;;;14.85;3.88;;;;;;;;;;4981821;28;20058;-53
2021/08/14 00:27:32;;;;;;;10.23;3.50;;;;;;;;;;4981749;28;20053;-53
2021/08/14 00:29:58;;;;;;;11.55;2.80;;;;;;;;;;4970112;28;20054;-52
2021/08/14 00:32:26;;;;;;;9.82;2.75;;;;;;;;;;4977057;28;20046;-54
2021/08/14 00:34:54;;;;;;;14.43;3.40;;;;;;;;;;4974317;28;20050;-50
2021/08/14 00:37:20;;;;;;;14.30;3.00;;;;;;;;;;4980479;28;20062;-51
2021/08/14 00:39:47;;;;;;;10.55;2.58;;;;;;;;;;4971772;28;20102;-53
2021/08/14 00:42:15;;;;;;;12.13;3.42;;;;;;;;;;4977255;28;20057;-51
2021/08/14 00:44:41;;;;;;;15.57;2.97;;;;;;;;;;4971316;28;20042;-52
2021/08/14 00:47:08;;;;;;;16.65;3.40;;;;;;;;;;4979211;28;20050;-53
2021/08/14 00:49:34;;;;;;;11.65;3.15;;;;;;;;;;4975934;28;20034;-54
2021/08/14 00:52:03;;;;;;;14.57;3.65;;;;;;;;;;4978402;28;20148;-50
2021/08/14 00:54:30;;;;;;;11.27;3.55;;;;;;;;;;4976525;28;20042;-53
2021/08/14 00:56:56;;;;;;;14.50;3.38;;;;;;;;;;4976421;28;20110;-55
2021/08/14 00:59:23;;;;;;;12.65;3.35;;;;;;;;;;4976237;28;20047;-53
2021/08/14 01:01:50;;;;;;;14.50;3.25;;;;;;;;;;4979188;28;20043;-52
2021/08/14 01:04:16;;;;;;;13.73;3.20;;;;;;;;;;4975124;28;20055;-52
2021/08/14 01:06:42;;;;;;;15.77;3.60;;;;;;;;;;4975779;28;20069;-53
2021/08/14 01:09:10;;;;;;;11.35;3.30;;;;;;;;;;4976848;28;20051;-53
2021/08/14 01:11:37;;;;;;;13.60;3.40;;;;;;;;;;4972557;28;20046;-54
2021/08/14 01:14:05;;;;;;;12.82;3.45;;;;;;;;;;4974161;28;20034;-50
2021/08/14 01:16:31;;;;;;;11.80;3.35;;;;;;;;;;4974428;28;20054;-54
2021/08/14 01:18:58;;;;;;;14.10;3.55;;;;;;;;;;4977218;28;20035;-55
2021/08/14 01:21:25;;;;;;;12.27;3.72;;;;;;;;;;4973605;28;20066;-50
2021/08/14 01:23:52;;;;;;;16.20;3.60;;;;;;;;;;4976315;28;20058;-52
2021/08/14 01:26:21;;;;;;;13.20;3.80;;;;;;;;;;4972982;28;20051;-49
2021/08/14 01:28:49;;;;;;;10.25;3.30;;;;;;;;;;4985286;28;20046;-52
2021/08/14 01:31:16;;;;;;;13.48;3.95;;;;;;;;;;4976464;28;20054;-50
2021/08/14 01:33:44;;;;;;;15.20;3.20;;;;;;;;;;4978581;28;20074;-53
2021/08/14 01:36:11;;;;;;;10.82;3.55;;;;;;;;;;4975918;28;20046;-49
2021/08/14 01:38:44;;;;;;;13.40;3.70;;;;;;;;;;4977858;28;20056;-51
2021/08/14 01:41:11;;;;;;;14.55;3.50;;;;;;;;;;4976504;28;20042;-50
2021/08/14 01:43:51;;;;;;;22.85;3.75;;;;;;;;;;4999529;28;20142;-51
2021/08/14 01:46:17;;;;;;;11.85;3.30;;;;;;;;;;4975938;28;20042;-48
2021/08/14 01:48:44;;;;;;;12.93;3.70;;;;;;;;;;4980614;28;20057;-52
2021/08/14 01:51:10;;;;;;;18.48;3.65;;;;;;;;;;4981915;28;20065;-51
2021/08/14 01:53:36;;;;;;;13.32;3.38;;;;;;;;;;4983318;28;20062;-49
2021/08/14 01:56:03;;;;;;;14.10;3.30;;;;;;;;;;4998576;28;20061;-54
2021/08/14 01:58:29;;;;;;;15.90;4.03;;;;;;;;;;4979882;28;20046;-53
2021/08/14 02:00:57;;;;;;;14.52;3.42;;;;;;;;;;4983900;28;20026;-49
2021/08/14 02:03:24;;;;;;;19.15;4.45;;;;;;;;;;4985507;28;20113;-54
2021/08/14 02:05:50;;;;;;;20.45;3.97;;;;;;;;;;4985582;28;20035;-51
2021/08/14 02:08:16;;;;;;;22.42;3.83;;;;;;;;;;4980396;28;20045;-53
2021/08/14 02:10:43;;;;;;;20.17;3.70;;;;;;;;;;4988615;28;20038;-52
2021/08/14 02:13:10;;;;;;;17.83;3.30;;;;;;;;;;4988770;28;20061;-52
2021/08/14 02:15:37;;;;;;;12.63;3.70;;;;;;;;;;4968464;28;20046;-54
2021/08/14 02:18:04;;;;;;;16.10;3.65;;;;;;;;;;4973957;28;20053;-53
2021/08/14 02:20:31;;;;;;;12.67;3.70;;;;;;;;;;4986404;28;20041;-53
2021/08/14 02:22:58;;;;;;;12.00;3.50;;;;;;;;;;4983923;28;20354;-50
2021/08/14 02:25:24;;;;;;;16.92;4.03;;;;;;;;;;4986811;28;20049;-51
2021/08/14 02:27:50;;;;;;;17.95;3.83;;;;;;;;;;4982627;28;20038;-50
2021/08/14 02:30:17;;;;;;;13.45;3.72;;;;;;;;;;4985494;28;20038;-53
2021/08/14 02:32:47;;;;;;;14.88;3.70;;;;;;;;;;4980942;28;20058;-53
2021/08/14 02:35:14;;;;;;;13.45;3.42;;;;;;;;;;4966562;28;20046;-53
2021/08/14 02:37:41;;;;;;;13.17;4.10;;;;;;;;;;4965201;28;20050;-56
2021/08/14 02:40:08;;;;;;;11.70;3.58;;;;;;;;;;4978426;28;20116;-52
2021/08/14 02:42:35;;;;;;;15.82;3.83;;;;;;;;;;5004070;28;20046;-55
2021/08/14 02:45:05;;;;;;;10.55;3.38;;;;;;;;;;4981649;28;20042;-52
2021/08/14 02:47:32;;;;;;;16.15;4.35;;;;;;;;;;4987410;28;20035;-52
2021/08/14 02:49:58;;;;;;;15.35;3.83;;;;;;;;;;4982869;28;20046;-53
2021/08/14 02:52:27;;;;;;;14.25;3.83;;;;;;;;;;4988580;28;20034;-51
2021/08/14 02:54:54;;;;;;;17.38;3.65;;;;;;;;;;4983108;28;20042;-55
2021/08/14 02:57:20;;;;;;;15.85;4.30;;;;;;;;;;4985181;28;20049;-53
2021/08/14 02:59:46;;;;;;;18.50;3.38;;;;;;;;;;4991339;28;20042;-49
2021/08/14 03:02:13;;;;;;;14.30;3.58;;;;;;;;;;4967579;28;20062;-53
2021/08/14 03:04:39;;;;;;;19.40;4.13;;;;;;;;;;4965255;28;20053;-54
2021/08/14 03:07:06;;;;;;;13.10;3.80;;;;;;;;;;4968215;28;20121;-52
2021/08/14 03:09:34;;;;;;;18.10;3.65;;;;;;;;;;4963594;28;20054;-51
2021/08/14 03:12:02;;;;;;;10.53;3.93;;;;;;;;;;4986969;28;20042;-54
2021/08/14 03:14:28;;;;;;;15.68;4.10;;;;;;;;;;4980557;28;20049;-52
2021/08/14 03:16:54;;;;;;;13.75;3.80;;;;;;;;;;4967615;28;20042;-51
2021/08/14 03:19:21;;;;;;;16.98;3.92;;;;;;;;;;4966394;28;20039;-53
2021/08/14 03:21:49;;;;;;;16.00;4.05;;;;;;;;;;4966051;28;20047;-53
2021/08/14 03:24:15;;;;;;;9.65;3.58;;;;;;;;;;4969905;28;20045;-55
2021/08/14 03:26:43;;;;;;;11.50;3.70;;;;;;;;;;4982708;28;20042;-50
2021/08/14 03:29:09;;;;;;;16.17;3.77;;;;;;;;;;4988252;28;20155;-55
2021/08/14 03:31:36;;;;;;;14.30;3.70;;;;;;;;;;4968696;28;20069;-53
2021/08/14 03:34:03;;;;;;;14.35;3.83;;;;;;;;;;4966199;28;20133;-53
2021/08/14 03:36:29;;;;;;;12.57;3.60;;;;;;;;;;4976230;28;20054;-54
2021/08/14 03:38:56;;;;;;;12.18;3.47;;;;;;;;;;4986750;28;20120;-51
2021/08/14 03:41:23;;;;;;;13.32;3.70;;;;;;;;;;4973942;28;20058;-53
2021/08/14 03:43:50;;;;;;;14.55;4.53;;;;;;;;;;4967642;28;20038;-52
2021/08/14 03:46:17;;;;;;;10.70;3.70;;;;;;;;;;4963154;28;20054;-53
2021/08/14 03:48:43;;;;;;;13.48;3.85;;;;;;;;;;4968069;28;20268;-54
2021/08/14 03:51:11;;;;;;;14.20;3.65;;;;;;;;;;4964303;28;20039;-51
2021/08/14 03:53:37;;;;;;;15.98;3.47;;;;;;;;;;4985937;28;20046;-51
2021/08/14 03:56:04;;;;;;;17.13;3.80;;;;;;;;;;4965774;28;20042;-54
2021/08/14 03:58:31;;;;;;;13.05;3.70;;;;;;;;;;4966375;28;20038;-54
2021/08/14 04:01:02;;;;;;;16.05;4.07;;;;;;;;;;4965097;28;20046;-53
2021/08/14 04:03:28;;;;;;;15.30;4.00;;;;;;;;;;4967449;28;20039;-52
2021/08/14 04:05:55;;;;;;;15.38;3.80;;;;;;;;;;4985897;28;20046;-52
2021/08/14 04:08:21;;;;;;;13.45;3.78;;;;;;;;;;4981054;28;20046;-53
2021/08/14 04:10:47;;;;;;;18.42;3.83;;;;;;;;;;4975169;28;20053;-52
2021/08/14 04:13:14;;;;;;;18.38;3.92;;;;;;;;;;4979201;28;20050;-52
2021/08/14 04:15:40;;;;;;;16.45;4.38;;;;;;;;;;4986346;28;20116;-52
2021/08/14 04:18:08;;;;;;;14.13;3.83;;;;;;;;;;4972764;28;20054;-51
2021/08/14 04:20:35;;;;;;;14.07;3.90;;;;;;;;;;4967671;28;20077;-55
2021/08/14 04:23:02;;;;;;;14.23;3.80;;;;;;;;;;4989800;28;20042;-52
2021/08/14 04:25:28;;;;;;;18.73;4.22;;;;;;;;;;4987604;28;20049;-53
2021/08/14 04:27:55;;;;;;;10.75;3.47;;;;;;;;;;4975414;28;20046;-55
2021/08/14 04:30:21;;;;;;;17.77;3.92;;;;;;;;;;4983433;28;20042;-53
2021/08/14 04:32:50;;;;;;;10.38;3.70;;;;;;;;;;4964567;28;20043;-54
2021/08/14 04:35:18;;;;;;;20.30;4.28;;;;;;;;;;4966541;28;20047;-52
2021/08/14 04:37:45;;;;;;;9.30;3.70;;;;;;;;;;4959275;28;20050;-49
2021/08/14 04:40:13;;;;;;;19.98;4.13;;;;;;;;;;4982547;28;20042;-52
2021/08/14 04:42:40;;;;;;;16.08;4.50;;;;;;;;;;4982528;28;20042;-52
2021/08/14 04:45:07;;;;;;;19.30;4.53;;;;;;;;;;4967793;28;20049;-54
2021/08/14 04:47:33;;;;;;;16.65;4.25;;;;;;;;;;4983728;28;20050;-55
2021/08/14 04:50:00;;;;;;;16.90;4.20;;;;;;;;;;4983485;28;20053;-51
2021/08/14 04:52:31;;;;;;;14.30;4.10;;;;;;;;;;5003906;28;20038;-54
2021/08/14 04:54:58;;;;;;;16.20;4.38;;;;;;;;;;4985164;28;20082;-52
2021/08/14 04:57:24;;;;;;;16.80;4.05;;;;;;;;;;5005248;28;20034;-54
2021/08/14 04:59:51;;;;;;;14.02;3.75;;;;;;;;;;4999922;28;20075;-62
2021/08/14 05:02:19;;;;;;;18.52;4.00;;;;;;;;;;4989072;28;20030;-50
2021/08/14 05:04:45;;;;;;;21.88;4.35;;;;;;;;;;4988551;28;20043;-54
2021/08/14 05:07:12;;;;;;;19.15;4.32;;;;;;;;;;4967824;28;20047;-53
2021/08/14 05:09:39;;;;;;;14.55;4.32;;;;;;;;;;4964814;28;20046;-49
2021/08/14 05:12:08;;;;;;;18.60;4.33;;;;;;;;;;4981663;28;20052;-52
2021/08/14 05:14:35;;;;;;;14.82;4.45;;;;;;;;;;4981369;28;20035;-52
2021/08/14 05:17:01;;;;;;;17.70;4.97;;;;;;;;;;4981857;28;20042;-51
2021/08/14 05:19:27;;;;;;;17.40;4.57;;;;;;;;;;4963011;28;20041;-51
2021/08/14 05:21:54;;;;;;;13.02;4.32;;;;;;;;;;4985798;28;20051;-53
2021/08/14 05:24:21;;;;;;;21.77;4.07;;;;;;;;;;4966366;28;20159;-53
2021/08/14 05:26:48;;;;;;;20.63;5.13;;;;;;;;;;4985436;28;20035;-51
2021/08/14 05:29:15;;;;;;;16.33;5.27;;;;;;;;;;4967656;28;20035;-52
2021/08/14 05:31:42;;;;;;;19.25;5.00;;;;;;;;;;4963740;28;20034;-51
2021/08/14 05:34:08;;;;;;;18.02;5.38;;;;;;;;;;4967875;28;20047;-53
2021/08/14 05:36:35;;;;;;;12.55;4.30;;;;;;;;;;4980526;28;20054;-54
2021/08/14 05:39:02;;;;;;;18.67;5.25;;;;;;;;;;4988497;28;20042;-51
2021/08/14 05:41:29;;;;;;;11.65;4.40;;;;;;;;;;4982737;28;20116;-52
2021/08/14 05:43:57;;;;;;;17.23;4.55;;;;;;;;;;4987921;28;20053;-55
2021/08/14 05:46:23;;;;;;;22.42;5.20;;;;;;;;;;4984177;28;20046;-49
2021/08/14 05:48:50;;;;;;;14.38;4.60;;;;;;;;;;5005213;28;20034;-54
2021/08/14 05:51:16;;;;;;;16.70;4.97;;;;;;;;;;5001410;28;20046;-50
2021/08/14 05:53:43;;;;;;;18.33;4.82;;;;;;;;;;5005448;28;20048;-53
2021/08/14 05:56:09;;;;;;;17.02;5.18;;;;;;;;;;4972297;28;20053;-53
2021/08/14 05:58:35;;;;;;;15.63;4.88;;;;;;;;;;5006140;28;20042;-53
2021/08/14 06:01:03;;;;;;;14.43;4.55;;;;;;;;;;4997302;28;20058;-55
2021/08/14 06:03:33;;;;;;;15.57;4.67;;;;;;;;;;4968710;28;20049;-51
2021/08/14 06:05:59;;;;;;;18.35;5.35;;;;;;;;;;4965811;28;20046;-54
2021/08/14 06:08:25;;;;;;;21.00;5.80;;;;;;;;;;4969354;28;20053;-52
2021/08/14 06:10:52;;;;;;;25.48;6.20;;;;;;;;;;4976237;28;20049;-54
2021/08/14 06:13:20;;;;;;;18.73;4.93;;;;;;;;;;4983043;28;20181;-53
2021/08/14 06:15:46;;;;;;;15.23;4.80;;;;;;;;;;5004876;28;20042;-53
2021/08/14 06:18:15;;;;;;;20.08;5.43;;;;;;;;;;4968334;28;20050;-54
2021/08/14 06:20:41;;;;;;;19.33;6.05;;;;;;;;;;4985912;28;20078;-53
2021/08/14 06:23:08;;;;;;;13.57;4.90;;;;;;;;;;4997046;28;20042;-56
2021/08/14 06:25:34;;;;;;;23.98;5.43;;;;;;;;;;4987237;28;20053;-53
2021/08/14 06:28:01;;;;;;;18.55;5.43;;;;;;;;;;4973730;28;20027;-54
2021/08/14 06:30:27;;;;;;;12.18;5.35;;;;;;;;;;4968692;28;20101;-55
2021/08/14 06:32:54;;;;;;;26.83;5.47;;;;;;;;;;4965842;28;20043;-51
2021/08/14 06:35:22;;;;;;;23.65;6.03;;;;;;;;;;4970001;28;20054;-53
2021/08/14 06:37:48;;;;;;;17.25;5.35;;;;;;;;;;4987695;28;20100;-54
2021/08/14 06:40:15;;;;;;;19.55;5.63;;;;;;;;;;5005526;28;20042;-51
2021/08/14 06:42:42;;;;;;;28.80;7.88;;;;;;;;;;4988110;28;20041;-54
2021/08/14 06:45:09;;;;;;;18.50;6.30;;;;;;;;;;4987947;28;20124;-53
2021/08/14 06:47:35;;;;;;;18.38;5.93;;;;;;;;;;4983395;28;20050;-54
2021/08/14 06:50:02;;;;;;;18.88;5.70;;;;;;;;;;4969757;28;20057;-51
2021/08/14 06:52:30;;;;;;;20.17;5.55;;;;;;;;;;4983910;28;20053;-54
2021/08/14 06:54:56;;;;;;;20.55;5.78;;;;;;;;;;4976919;28;20062;-49
2021/08/14 06:57:23;;;;;;;19.42;5.63;;;;;;;;;;4981279;28;20053;-52
2021/08/14 06:59:49;;;;;;;20.20;5.53;;;;;;;;;;4975506;28;20181;-53
2021/08/14 07:02:16;;;;;;;18.90;5.40;;;;;;;;;;4979378;28;20058;-50
2021/08/14 07:04:42;;;;;;;19.10;6.18;;;;;;;;;;4976463;28;20045;-54
2021/08/14 07:07:09;;;;;;;22.20;5.68;;;;;;;;;;4980790;28;20038;-50
2021/08/14 07:09:38;;;;;;;29.60;6.47;;;;;;;;;;4974418;28;20050;-54
2021/08/14 07:12:06;;;;;;;16.40;5.43;;;;;;;;;;5000796;28;20069;-51
2021/08/14 07:14:32;;;;;;;15.95;5.45;;;;;;;;;;4993672;28;20042;-55
2021/08/14 07:16:59;;;;;;;21.00;5.80;;;;;;;;;;4984441;28;20034;-54
2021/08/14 07:19:25;;;;;;;23.33;5.68;;;;;;;;;;4979342;28;20058;-54
2021/08/14 07:21:53;;;;;;;15.88;4.88;;;;;;;;;;4979711;28;20064;-55
2021/08/14 07:24:19;;;;;;;23.40;5.65;;;;;;;;;;4975837;28;20051;-53
2021/08/14 07:26:47;;;;;;;22.67;7.43;;;;;;;;;;4999343;28;20049;-54
2021/08/14 07:29:13;;;;;;;21.80;8.57;;;;;;;;;;4976371;28;20032;-55
2021/08/14 07:31:40;;;;;;;35.50;7.25;;;;;;;;;;4974495;28;20103;-52
2021/08/14 07:34:07;;;;;;;20.35;6.13;;;;;;;;;;4977246;28;20035;-51
2021/08/14 07:36:33;;;;;;;33.03;6.72;;;;;;;;;;4976717;28;20047;-54
2021/08/14 07:39:00;;;;;;;25.00;6.97;;;;;;;;;;4980522;28;20039;-54
2021/08/14 07:41:27;;;;;;;20.63;6.78;;;;;;;;;;4973002;28;20043;-53
2021/08/14 07:43:54;;;;;;;24.05;7.35;;;;;;;;;;4978040;28;20035;-51
2021/08/14 07:46:21;;;;;;;22.47;6.63;;;;;;;;;;4974869;28;20054;-53
2021/08/14 07:48:47;;;;;;;25.92;6.65;;;;;;;;;;4980971;28;20286;-52
2021/08/14 07:51:14;;;;;;;23.67;6.57;;;;;;;;;;4975771;28;20042;-50
2021/08/14 07:53:40;;;;;;;27.45;7.68;;;;;;;;;;4979946;28;20034;-51
2021/08/14 07:56:07;;;;;;;27.65;6.80;;;;;;;;;;4977229;28;20049;-54
2021/08/14 07:58:34;;;;;;;22.95;7.07;;;;;;;;;;4978992;28;20044;-56
2021/08/14 08:01:02;;;;;;;20.80;7.20;;;;;;;;;;4974607;28;20078;-55
2021/08/14 08:03:28;;;;;;;25.77;10.18;;;;;;;;;;4976960;28;20026;-52
2021/08/14 08:05:54;;;;;;;27.42;8.88;;;;;;;;;;4973738;28;20050;-56
2021/08/14 08:08:21;;;;;;;29.75;7.28;;;;;;;;;;4985682;28;20110;-54
2021/08/14 08:10:47;;;;;;;25.20;7.15;;;;;;;;;;4969842;28;20050;-54
2021/08/14 08:13:14;;;;;;;29.35;7.25;;;;;;;;;;4964988;28;20356;-55
2021/08/14 08:15:40;;;;;;;21.10;6.88;;;;;;;;;;4962660;28;20047;-53
2021/08/14 08:18:10;;;;;;;23.08;7.03;;;;;;;;;;4978713;28;20039;-55
2021/08/14 08:20:36;;;;;;;28.38;9.50;;;;;;;;;;4984240;28;20046;-55
2021/08/14 08:23:03;;;;;;;26.52;8.13;;;;;;;;;;4963024;28;20046;-55
2021/08/14 08:25:30;;;;;;;29.30;8.95;;;;;;;;;;4964250;28;20043;-54
2021/08/14 08:28:01;;;;;;;34.50;10.57;;;;;;;;;;4958634;28;20043;-57
2021/08/14 08:30:28;;;;;;;40.85;10.90;;;;;;;;;;4983270;28;20062;-54
2021/08/14 08:32:55;;;;;;;26.88;10.00;;;;;;;;;;4962453;28;20045;-54
2021/08/14 08:35:23;;;;;;;35.92;9.90;;;;;;;;;;4965195;28;20051;-56
2021/08/14 08:37:50;;;;;;;28.67;8.82;;;;;;;;;;4970734;28;20046;-58
2021/08/14 08:40:17;;;;;;;23.10;8.75;;;;;;;;;;4984255;28;20128;-56
2021/08/14 08:42:45;;;;;;;21.73;8.52;;;;;;;;;;4980473;28;20112;-57
2021/08/14 08:45:13;;;;;;;21.95;8.00;;;;;;;;;;4965197;28;20078;-58
2021/08/14 08:47:41;;;;;;;29.13;9.45;;;;;;;;;;4962022;28;20054;-56
2021/08/14 08:50:09;;;;;;;32.30;11.55;;;;;;;;;;4983976;28;20051;-57
2021/08/14 08:52:37;;;;;;;25.90;9.23;;;;;;;;;;4963545;28;20054;-57
2021/08/14 08:55:05;;;;;;;20.48;8.82;;;;;;;;;;4967749;28;20104;-57
2021/08/14 08:57:32;;;;;;;22.02;8.57;;;;;;;;;;4984755;28;20046;-57
2021/08/14 08:59:58;;;;;;;25.92;8.60;;;;;;;;;;4977910;28;20051;-54
2021/08/14 09:02:26;;;;;;;26.88;9.45;;;;;;;;;;4969967;28;20051;-56
2021/08/14 09:05:14;;;;;;;30.65;9.32;;;;;;;;;;4982983;28;20058;-57
2021/08/14 09:07:42;;;;;;;28.37;9.23;;;;;;;;;;4964419;28;20042;-56
2021/08/14 09:10:10;;;;;;;28.08;9.15;;;;;;;;;;4967990;28;20057;-57
2021/08/14 09:12:38;;;;;;;23.15;8.57;;;;;;;;;;4988296;28;20128;-56
2021/08/14 09:15:06;;;;;;;22.48;8.80;;;;;;;;;;4968612;28;20086;-56
2021/08/14 09:17:32;;;;;;;31.63;8.88;;;;;;;;;;4969565;28;20061;-57
2021/08/14 09:20:09;;;;;;;36.92;9.85;;;;;;;;;;4966941;28;20055;-57
2021/08/14 09:22:36;;;;;;;31.90;9.93;;;;;;;;;;4969538;28;20042;-58
2021/08/14 09:25:20;;;;;;;28.75;9.60;;;;;;;;;;4977693;28;20054;-57
2021/08/14 09:27:54;;;;;;;30.67;9.32;;;;;;;;;;5000152;28;20061;-57
2021/08/14 09:30:21;;;;;;;30.63;9.98;;;;;;;;;;4979014;28;20137;-54
2021/08/14 09:33:07;;;;;;;30.65;9.20;;;;;;;;;;4984949;28;20109;-57
2021/08/14 09:35:34;;;;;;;26.55;8.95;;;;;;;;;;4967528;28;20051;-56
2021/08/14 09:38:03;;;;;;;28.50;9.27;;;;;;;;;;4968752;28;20051;-57
2021/08/14 09:40:38;;;;;;;29.60;9.50;;;;;;;;;;4963118;28;20043;-58
2021/08/14 09:43:08;;;;;;;30.83;9.73;;;;;;;;;;4981412;28;20047;-56
2021/08/14 09:45:35;;;;;;;26.35;9.05;;;;;;;;;;4979800;28;20053;-56
2021/08/14 09:48:17;;;;;;;25.80;9.05;;;;;;;;;;4986473;28;22551;-56
2021/08/14 09:50:44;;;;;;;25.73;8.07;;;;;;;;;;4971539;28;20035;-55
2021/08/14 09:53:15;;;;;;;29.83;9.75;;;;;;;;;;4966181;28;20047;-54
2021/08/14 09:55:45;;;;;;;24.20;8.88;;;;;;;;;;4969958;28;20047;-55
2021/08/14 09:58:15;;;;;;;27.70;8.43;;;;;;;;;;4984810;28;20038;-56
2021/08/14 10:00:42;;;;;;;30.02;9.55;;;;;;;;;;4976498;28;20047;-52
2021/08/14 10:03:08;;;;;;;33.20;9.75;;;;;;;;;;4965589;28;20070;-55
2021/08/14 10:05:35;;;;;;;31.52;9.48;;;;;;;;;;4962278;28;20067;-56
2021/08/14 10:08:02;;;;;;;26.27;9.93;;;;;;;;;;4966451;28;20047;-58
2021/08/14 10:10:28;;;;;;;30.40;10.98;;;;;;;;;;4968042;28;20057;-56
2021/08/14 10:12:59;;;;;;;32.92;10.68;;;;;;;;;;4966164;28;20058;-55
2021/08/14 10:15:26;;;;;;;33.90;10.70;;;;;;;;;;4963625;28;20043;-55
2021/08/14 10:17:52;;;;;;;30.05;10.32;;;;;;;;;;4963525;28;20063;-54
2021/08/14 10:20:18;;;;;;;37.08;10.35;;;;;;;;;;4963851;28;20051;-55
2021/08/14 10:22:46;;;;;;;27.25;9.57;;;;;;;;;;4961747;28;20074;-56
2021/08/14 10:25:16;;;;;;;28.50;10.23;;;;;;;;;;4964834;28;20057;-57
2021/08/14 10:27:55;;;;;;;27.80;10.25;;;;;;;;;;4974802;28;20058;-56
2021/08/14 10:30:21;;;;;;;;;;;;;;;;;;4983700;28;20043;-56
2021/08/14 10:32:49;;;;;;;35.42;10.70;;;;;;;;;;4989268;28;19925;-56
2021/08/14 10:35:35;;;;;;;29.48;10.43;;;;;;;;;;4984884;28;20117;-54
2021/08/14 10:38:01;;;;;;;35.72;10.88;;;;;;;;;;4968114;28;20071;-56
2021/08/14 10:40:43;;;;;;;26.25;11.25;;;;;;;;;;4966440;28;20046;-55
2021/08/14 10:43:10;;;;;;;31.88;10.73;;;;;;;;;;4961596;28;20031;-56
2021/08/14 10:45:37;;;;;;;26.80;10.45;;;;;;;;;;4964874;28;20118;-55
2021/08/14 10:48:05;;;;;;;34.35;10.90;;;;;;;;;;4961338;28;20090;-52
2021/08/14 10:50:55;;;;;;;29.50;10.02;;;;;;;;;;4965580;28;20050;-54
2021/08/14 10:53:25;;;;;;;26.15;9.15;;;;;;;;;;4971358;28;20070;-55
2021/08/14 10:55:54;;;;;;;29.50;10.77;;;;;;;;;;4966677;28;20046;-56
2021/08/14 10:58:23;;;;;;;23.92;9.52;;;;;;;;;;4961191;28;20039;-56
2021/08/14 11:00:50;;;;;;;28.42;9.90;;;;;;;;;;4965319;28;20032;-56
2021/08/14 11:03:21;;;;;;;25.02;9.00;;;;;;;;;;4969014;28;20058;-57
2021/08/14 11:05:47;;;;;;;23.98;8.60;;;;;;;;;;4984119;28;20031;-56
2021/08/14 11:08:24;;;;;;;24.58;8.15;;;;;;;;;;4975460;28;20043;-55
2021/08/14 11:10:51;;;;;;;23.73;7.85;;;;;;;;;;4966840;28;20046;-56
2021/08/14 11:13:42;;;;;;;23.27;7.90;;;;;;;;;;4963641;28;20046;-57
2021/08/14 11:16:09;;;;;;;30.45;8.93;;;;;;;;;;4951996;28;20042;-57
2021/08/14 11:18:50;;;;;;;29.67;8.52;;;;;;;;;;4966801;28;20137;-55
2021/08/14 11:21:39;;;;;;;19.38;7.25;;;;;;;;;;4982738;28;20145;-56
2021/08/14 11:24:05;;;;;;;20.67;7.25;;;;;;;;;;4970790;28;20043;-56
2021/08/14 11:26:35;;;;;;;22.65;7.88;;;;;;;;;;4966186;28;20047;-57
2021/08/14 11:29:02;;;;;;;22.77;7.65;;;;;;;;;;4964910;28;20062;-56
2021/08/14 11:31:28;;;;;;;27.65;7.70;;;;;;;;;;4984146;28;20129;-56
2021/08/14 11:33:59;;;;;;;24.08;8.00;;;;;;;;;;4976706;28;20046;-55
2021/08/14 11:36:30;;;;;;;21.17;7.22;;;;;;;;;;4963839;28;20047;-57
2021/08/14 11:39:01;;;;;;;19.77;6.78;;;;;;;;;;4958652;28;20043;-56
2021/08/14 11:41:28;;;;;;;21.70;7.65;;;;;;;;;;4964510;28;20185;-55
2021/08/14 11:44:00;;;;;;;21.98;8.25;;;;;;;;;;4961570;28;20047;-57
2021/08/14 11:46:26;;;;;;;19.60;6.28;;;;;;;;;;4962952;28;20046;-56
2021/08/14 11:48:55;;;;;;;22.00;6.15;;;;;;;;;;4966060;28;20050;-57
2021/08/14 11:51:23;;;;;;;17.50;6.50;;;;;;;;;;4961743;28;20043;-56
2021/08/14 11:54:03;;;;;;;20.42;7.07;;;;;;;;;;4965084;28;20039;-57
2021/08/14 11:56:29;;;;;;;23.27;6.18;;;;;;;;;;4961970;28;20059;-55
2021/08/14 11:58:56;;;;;;;21.35;7.03;;;;;;;;;;4963899;28;20042;-57
2021/08/14 12:01:23;;;;;;;26.70;7.30;;;;;;;;;;4961374;28;20047;-57
2021/08/14 12:03:54;;;;;;;24.92;7.30;;;;;;;;;;4963325;28;20047;-56
2021/08/14 12:06:21;;;;;;;25.23;6.78;;;;;;;;;;4959681;28;20047;-55
2021/08/14 12:08:48;;;;;;;23.77;7.90;;;;;;;;;;4964338;28;20079;-57
2021/08/14 12:11:22;;;;;;;30.63;6.75;;;;;;;;;;4965040;28;20050;-58
2021/08/14 12:13:48;;;;;;;22.83;9.82;;;;;;;;;;4963899;28;20125;-57
2021/08/14 12:16:16;;;;;;;23.23;7.72;;;;;;;;;;4971702;28;20042;-54
2021/08/14 12:18:43;;;;;;;16.10;6.07;;;;;;;;;;4983570;28;20053;-57
2021/08/14 12:21:10;;;;;;;19.90;7.05;;;;;;;;;;4977604;28;20042;-57
2021/08/14 12:23:37;;;;;;;22.20;5.97;;;;;;;;;;4983188;28;20049;-57
2021/08/14 12:26:05;;;;;;;25.10;7.25;;;;;;;;;;4978600;28;20050;-58
2021/08/14 12:28:34;;;;;;;18.65;5.47;;;;;;;;;;4988847;28;20120;-57
2021/08/14 12:31:02;;;;;;;14.98;5.55;;;;;;;;;;4979784;28;20081;-58
2021/08/14 12:33:30;;;;;;;18.35;6.63;;;;;;;;;;4967073;28;20038;-57
2021/08/14 12:36:00;;;;;;;17.77;5.93;;;;;;;;;;4983079;28;20046;-57
2021/08/14 12:38:27;;;;;;;16.38;5.75;;;;;;;;;;4983073;28;20127;-56
2021/08/14 12:40:54;;;;;;;21.38;6.93;;;;;;;;;;5004310;28;20046;-58
2021/08/14 12:43:22;;;;;;;22.20;6.75;;;;;;;;;;4965600;28;20075;-57
2021/08/14 12:45:50;;;;;;;24.75;7.45;;;;;;;;;;4966752;28;20042;-57
2021/08/14 12:48:18;;;;;;;19.30;7.10;;;;;;;;;;4979037;28;20038;-58
2021/08/14 12:50:44;;;;;;;23.30;6.30;;;;;;;;;;4986276;28;20054;-57
2021/08/14 12:53:15;;;;;;;22.45;5.35;;;;;;;;;;4971351;28;20034;-58
2021/08/14 12:55:42;;;;;;;25.10;5.78;;;;;;;;;;4982058;28;20124;-57
2021/08/14 12:58:09;;;;;;;24.50;5.57;;;;;;;;;;4971492;28;20047;-57
2021/08/14 13:00:36;;;;;;;18.80;6.13;;;;;;;;;;4966501;28;20054;-57
2021/08/14 13:03:05;;;;;;;17.58;5.80;;;;;;;;;;4963558;28;20038;-57
2021/08/14 13:05:32;;;;;;;15.45;5.25;;;;;;;;;;4983316;28;20145;-57
2021/08/14 13:07:58;;;;;;;20.55;5.07;;;;;;;;;;4967787;28;20042;-57
2021/08/14 13:10:25;;;;;;;18.50;5.40;;;;;;;;;;4996258;28;20042;-57
2021/08/14 13:12:53;;;;;;;19.02;5.07;;;;;;;;;;4963261;28;20114;-57
2021/08/14 13:15:20;;;;;;;19.60;5.10;;;;;;;;;;4984257;28;20050;-57
2021/08/14 13:17:47;;;;;;;17.35;6.07;;;;;;;;;;4964423;28;20280;-57
2021/08/14 13:20:15;;;;;;;20.10;5.38;;;;;;;;;;4981387;28;20042;-56
2021/08/14 13:22:42;;;;;;;22.48;6.50;;;;;;;;;;4966097;28;20053;-56
2021/08/14 13:25:10;;;;;;;18.67;5.20;;;;;;;;;;4981928;28;20069;-58
2021/08/14 13:27:40;;;;;;;25.70;5.93;;;;;;;;;;4985396;28;20042;-57
2021/08/14 13:30:08;;;;;;;20.02;5.07;;;;;;;;;;4961540;28;20071;-57
2021/08/14 13:32:34;;;;;;;21.42;6.07;;;;;;;;;;4965097;28;20143;-58
2021/08/14 13:35:01;;;;;;;17.45;6.07;;;;;;;;;;4993500;28;20046;-57
2021/08/14 13:37:29;;;;;;;22.63;5.25;;;;;;;;;;5001511;28;20046;-57
2021/08/14 13:39:55;;;;;;;18.05;5.00;;;;;;;;;;4986947;28;20082;-56
2021/08/14 13:42:22;;;;;;;23.15;5.57;;;;;;;;;;4967037;28;20053;-57
2021/08/14 13:44:48;;;;;;;23.50;4.55;;;;;;;;;;4973510;28;20038;-57
2021/08/14 13:47:15;;;;;;;21.05;5.32;;;;;;;;;;4986830;28;20054;-56
2021/08/14 13:49:41;;;;;;;20.40;5.35;;;;;;;;;;4995652;28;20125;-57
2021/08/14 13:52:08;;;;;;;20.15;4.43;;;;;;;;;;4970052;28;20062;-57
2021/08/14 13:54:36;;;;;;;19.73;4.80;;;;;;;;;;4968010;28;20054;-57
2021/08/14 13:57:03;;;;;;;;;;;;;;;;;;4968056;28;20042;-58
2021/08/14 13:59:29;;;;;;;14.52;3.90;;;;;;;;;;4963719;28;19950;-58
2021/08/14 14:01:56;;;;;;;19.77;5.03;;;;;;;;;;4985933;28;20069;-58
2021/08/14 14:04:24;;;;;;;14.02;4.63;;;;;;;;;;4966206;28;20038;-57
2021/08/14 14:06:51;;;;;;;18.20;4.82;;;;;;;;;;5004511;28;20126;-58
2021/08/14 14:09:17;;;;;;;15.43;4.38;;;;;;;;;;4986983;28;20042;-58
2021/08/14 14:11:45;;;;;;;18.63;4.47;;;;;;;;;;4985063;28;20120;-57
2021/08/14 14:14:12;;;;;;;12.00;3.92;;;;;;;;;;4988323;28;20034;-58
2021/08/14 14:16:38;;;;;;;17.27;4.55;;;;;;;;;;4987559;28;20046;-58
2021/08/14 14:19:05;;;;;;;19.38;4.63;;;;;;;;;;4969556;28;20078;-57
2021/08/14 14:21:32;;;;;;;22.02;4.18;;;;;;;;;;4964590;28;20050;-57
2021/08/14 14:23:58;;;;;;;20.13;4.25;;;;;;;;;;4969276;28;20150;-58
2021/08/14 14:26:25;;;;;;;16.15;3.58;;;;;;;;;;4967080;28;20042;-57
2021/08/14 14:28:53;;;;;;;15.30;3.90;;;;;;;;;;4969877;28;20039;-58
2021/08/14 14:31:19;;;;;;;;;;;;;;;;;;4973265;28;20057;-57
2021/08/14 14:33:46;;;;;;;15.98;3.72;;;;;;;;;;4986955;28;19926;-56